Time;durP1;ratioP1;P1;durP2;ratioP2;P2;SDS_P1;SDS_P2;PMS_P1;PMS_P2;Temp;Humidity;BMP_temperature;BMP_pressure;BME280_temperature;BME280_humidity;BME280_pressure;Samples;Min_cycle;Max_cycle;Signal;HPM_P1;HPM_P2
2021/12/16 00:08:44;;;;;;;7.87;6.43;;;;;;;6.66;100.00;102296.91;5015446;28;20193;-77
2021/12/16 00:11:23;;;;;;;11.27;7.37;;;;;;;6.62;100.00;102293.84;5070490;28;20202;-77
2021/12/16 00:33:13;;;;;;;4.63;4.27;;;;;;;6.61;100.00;102288.66;5052681;28;20646;-77
2021/12/16 00:35:42;;;;;;;7.93;6.93;;;;;;;6.66;100.00;102296.91;5074109;28;20158;-77
2021/12/16 00:38:07;;;;;;;17.90;8.63;;;;;;;6.60;100.00;102292.44;5074760;28;20167;-77
2021/12/16 00:40:33;;;;;;;18.20;9.00;;;;;;;6.58;100.00;102295.38;5074329;28;20171;-77
2021/12/16 00:43:12;;;;;;;10.73;7.83;;;;;;;6.51;100.00;102279.25;5074009;28;20305;-77
2021/12/16 00:46:10;;;;;;;10.43;7.83;;;;;;;6.46;100.00;102297.28;5074019;28;20159;-77
2021/12/16 00:48:26;;;;;;;11.23;8.37;;;;;;;6.55;100.00;102296.69;5074228;28;20178;-77
2021/12/16 00:56:10;;;;;;;7.40;6.70;;;;;;;6.66;100.00;102303.19;5074751;28;20173;-77
2021/12/16 00:58:44;;;;;;;14.30;8.13;;;;;;;6.74;100.00;102305.50;5073995;28;20174;-77
2021/12/16 01:01:25;;;;;;;9.27;3.90;;;;;;;6.70;100.00;102304.34;5074487;28;20171;-77
2021/12/16 01:06:44;;;;;;;6.87;6.33;;;;;;;6.69;100.00;102301.88;5073700;28;20351;-77
2021/12/16 01:37:01;;;;;;;4.33;4.03;;;;;;;6.49;100.00;102299.53;5073293;28;20244;-77
2021/12/16 01:55:17;;;;;;;10.17;7.03;;;;;;;6.52;100.00;102282.78;5072601;28;20173;-77
2021/12/16 01:57:48;;;;;;;9.13;8.00;;;;;;;6.54;100.00;102305.09;5072754;28;20170;-77
2021/12/16 02:00:30;;;;;;;5.83;5.10;;;;;;;6.49;100.00;102296.81;5072713;28;20668;-77
2021/12/16 02:03:03;;;;;;;13.90;7.20;;;;;;;6.50;100.00;102302.00;5072696;28;20575;-77
2021/12/16 02:08:23;;;;;;;12.50;7.00;;;;;;;6.53;100.00;102296.13;5072801;28;20166;-77
2021/12/16 02:37:30;;;;;;;5.57;5.03;;;;;;;6.72;100.00;102312.25;5072424;28;20170;-77
2021/12/16 02:39:56;;;;;;;9.23;6.40;;;;;;;6.76;100.00;102306.09;5072240;28;20216;-77
2021/12/16 02:42:34;;;;;;;15.73;10.30;;;;;;;6.78;100.00;102316.72;5070861;28;20170;-77
2021/12/16 02:50:19;;;;;;;9.13;5.10;;;;;;;6.86;100.00;102324.50;5071550;28;20197;-77
2021/12/16 02:52:44;;;;;;;9.63;8.67;;;;;;;6.89;100.00;102315.03;5071642;28;20177;-77
2021/12/16 02:55:12;;;;;;;21.67;11.03;;;;;;;6.89;100.00;102315.88;5071400;28;20638;-77
2021/12/16 02:57:47;;;;;;;5.20;4.80;;;;;;;6.93;100.00;102310.75;5071460;28;20179;-77
2021/12/16 03:00:15;;;;;;;10.60;9.23;;;;;;;6.99;100.00;102315.25;5071550;28;20174;-77
2021/12/16 03:02:45;;;;;;;7.60;5.93;;;;;;;6.99;100.00;102323.41;5071397;28;20528;-77
2021/12/16 03:05:11;;;;;;;11.87;8.33;;;;;;;7.00;100.00;102336.75;5071181;28;20174;-77
2021/12/16 03:07:39;;;;;;;6.40;5.67;;;;;;;6.99;100.00;102345.97;5071446;28;20563;-77
2021/12/16 03:15:36;;;;;;;10.13;7.13;;;;;;;7.03;100.00;102336.25;5071265;28;20177;-77
2021/12/16 03:20:54;;;;;;;12.33;8.70;;;;;;;7.12;100.00;102339.44;5070970;28;20650;-78
2021/12/16 03:26:03;;;;;;;4.10;3.80;;;;;;;7.07;100.00;102337.41;5070749;28;20182;-77
2021/12/16 03:28:55;;;;;;;9.40;6.53;;;;;;;7.09;100.00;102320.91;5069768;28;20174;-77
2021/12/16 03:31:42;;;;;;;4.27;3.97;;;;;;;7.08;100.00;102325.47;5070743;28;20700;-77
2021/12/16 03:36:51;;;;;;;4.60;4.20;;;;;;;7.07;100.00;102320.28;5070904;28;20163;-77
2021/12/16 03:39:17;;;;;;;12.73;8.43;;;;;;;7.11;100.00;102322.31;5071181;28;20223;-77
2021/12/16 03:41:43;;;;;;;13.20;3.67;;;;;;;7.10;100.00;102317.13;5070744;28;20578;-77
2021/12/16 03:44:14;;;;;;;16.70;6.80;;;;;;;7.10;100.00;102320.66;5070299;28;20205;-77
2021/12/16 03:46:46;;;;;;;2.17;2.07;;;;;;;7.08;100.00;102320.03;5070270;28;20233;-77
2021/12/16 03:49:21;;;;;;;10.97;8.10;;;;;;;7.11;100.00;102322.31;5070547;28;20171;-77
2021/12/16 03:51:52;;;;;;;7.90;6.10;;;;;;;7.10;100.00;102330.69;5070489;28;20313;-77
2021/12/16 03:54:25;;;;;;;9.47;8.67;;;;;;;7.13;100.00;102322.06;5070112;28;20181;-77
2021/12/16 03:56:53;;;;;;;5.37;4.90;;;;;;;7.14;100.00;102313.66;5070320;28;20249;-77
2021/12/16 03:59:22;;;;;;;9.67;7.43;;;;;;;7.16;100.00;102338.69;5070531;28;20522;-77
2021/12/16 04:01:49;;;;;;;8.50;6.67;;;;;;;7.18;100.00;102322.16;5070318;28;20213;-77
2021/12/16 04:04:15;;;;;;;8.77;7.73;;;;;;;7.17;100.00;102320.50;5070373;28;20174;-78
2021/12/16 04:06:41;;;;;;;8.00;4.10;;;;;;;7.16;100.00;102319.66;5070094;28;20181;-77
2021/12/16 04:09:09;;;;;;;8.53;7.27;;;;;;;7.15;100.00;102312.59;5069815;28;20190;-77
2021/12/16 04:11:41;;;;;;;16.07;9.57;;;;;;;7.15;100.00;102320.75;5070388;28;20277;-77
2021/12/16 04:14:10;;;;;;;7.53;6.73;;;;;;;7.16;100.00;102325.13;5070255;28;20257;-77
2021/12/16 04:16:38;;;;;;;28.97;6.40;;;;;;;7.12;100.00;102323.94;5070701;28;20174;-77
2021/12/16 04:19:09;;;;;;;10.83;8.80;;;;;;;7.12;100.00;102313.09;5070727;28;20162;-77
2021/12/16 04:21:40;;;;;;;16.60;10.53;;;;;;;7.11;100.00;102321.47;5070220;28;20253;-77
2021/12/16 04:24:06;;;;;;;19.17;9.53;;;;;;;7.07;100.00;102325.72;5070286;28;20174;-77
2021/12/16 04:26:32;;;;;;;3.30;3.00;;;;;;;7.08;100.00;102324.66;5070189;28;20171;-77
2021/12/16 04:28:57;;;;;;;9.60;8.00;;;;;;;7.05;100.00;102331.41;5070049;28;20533;-77
2021/12/16 04:31:24;;;;;;;3.87;3.53;;;;;;;7.02;100.00;102331.91;5070344;28;20202;-77
2021/12/16 04:33:50;;;;;;;11.57;6.13;;;;;;;7.04;100.00;102343.34;5070055;28;20174;-77
2021/12/16 04:36:16;;;;;;;14.23;9.43;;;;;;;7.01;100.00;102332.97;5069878;28;20312;-77
2021/12/16 04:38:45;;;;;;;10.53;8.60;;;;;;;6.99;100.00;102334.28;5070160;28;20262;-77
2021/12/16 04:41:12;;;;;;;5.67;5.17;;;;;;;6.96;100.00;102341.03;5069968;28;20642;-77
2021/12/16 04:43:43;;;;;;;6.00;4.33;;;;;;;6.96;100.00;102345.63;5069800;28;20638;-77
2021/12/16 04:46:13;;;;;;;23.37;12.13;;;;;;;6.96;100.00;102351.06;5069917;28;20205;-77
2021/12/16 04:48:41;;;;;;;7.63;6.90;;;;;;;6.94;100.00;102354.00;5070130;28;20228;-77
2021/12/16 04:51:07;;;;;;;10.27;6.90;;;;;;;6.94;100.00;102355.88;5069775;28;20210;-77
2021/12/16 04:53:34;;;;;;;12.03;7.97;;;;;;;6.96;100.00;102370.09;5069881;28;20174;-77
2021/12/16 04:56:00;;;;;;;5.90;5.40;;;;;;;6.96;100.00;102368.19;5069900;28;20166;-77
2021/12/16 04:58:26;;;;;;;15.47;7.83;;;;;;;6.99;100.00;102373.16;5069900;28;20258;-77
2021/12/16 05:00:52;;;;;;;7.93;5.67;;;;;;;7.03;100.00;102385.19;5070006;28;20170;-77
2021/12/16 05:03:18;;;;;;;13.70;8.40;;;;;;;7.06;100.00;102381.16;5069887;28;20504;-77
2021/12/16 05:05:43;;;;;;;8.47;7.53;;;;;;;7.07;100.00;102385.50;5070805;28;20179;-77
2021/12/16 05:08:09;;;;;;;5.23;4.70;;;;;;;7.08;100.00;102389.88;5073522;28;20186;-77
2021/12/16 05:10:35;;;;;;;7.90;6.27;;;;;;;7.07;100.00;102394.50;5073316;28;20516;-77
2021/12/16 05:13:03;;;;;;;16.47;7.63;;;;;;;7.08;100.00;102392.59;5073368;28;20588;-77
2021/12/16 05:15:34;;;;;;;11.43;7.27;;;;;;;7.06;100.00;102379.25;5072994;28;20174;-77
2021/12/16 05:18:03;;;;;;;17.00;9.10;;;;;;;7.07;100.00;102375.47;5073332;28;20170;-77
2021/12/16 05:20:33;;;;;;;9.40;8.43;;;;;;;7.09;100.00;102375.25;5073073;28;20181;-78
2021/12/16 05:25:59;;;;;;;26.97;12.30;;;;;;;7.07;100.00;102385.50;5072874;28;20177;-77
2021/12/16 05:28:24;;;;;;;17.43;9.83;;;;;;;7.05;100.00;102383.03;5073055;28;20167;-77
2021/12/16 05:30:52;;;;;;;8.57;7.67;;;;;;;7.03;100.00;102385.19;5072978;28;20289;-77
2021/12/16 05:33:18;;;;;;;6.30;5.67;;;;;;;7.06;100.00;102390.13;5073024;28;20630;-77
2021/12/16 05:35:44;;;;;;;13.80;11.20;;;;;;;7.08;100.00;102384.44;5072895;28;20178;-77
2021/12/16 05:38:10;;;;;;;20.20;12.93;;;;;;;7.10;100.00;102391.31;5072836;28;20281;-77
2021/12/16 05:40:35;;;;;;;24.37;13.00;;;;;;;7.11;100.00;102392.16;5073084;28;20235;-77
2021/12/16 05:43:11;;;;;;;6.40;5.87;;;;;;;7.14;100.00;102394.38;5072692;28;20263;-77
2021/12/16 05:45:38;;;;;;;8.10;7.40;;;;;;;7.14;100.00;102389.75;5072580;28;20559;-77
2021/12/16 05:48:07;;;;;;;25.63;14.80;;;;;;;7.15;100.00;102401.47;5072633;28;20177;-77
2021/12/16 05:50:36;;;;;;;45.47;13.27;;;;;;;7.18;100.00;102400.16;5072544;28;20532;-78
2021/12/16 05:53:03;;;;;;;12.80;6.17;;;;;;;7.18;100.00;102397.44;5072550;28;20674;-77
2021/12/16 05:55:36;;;;;;;34.97;16.63;;;;;;;7.16;100.00;102405.84;5072338;28;20179;-77
2021/12/16 05:58:05;;;;;;;27.83;14.47;;;;;;;7.16;100.00;102413.97;5072680;28;20170;-77
2021/12/16 06:00:37;;;;;;;20.57;13.60;;;;;;;7.15;100.00;102424.03;5072456;28;20202;-77
2021/12/16 06:03:03;;;;;;;23.33;11.87;;;;;;;7.13;100.00;102370.97;5072440;28;20190;-78
2021/12/16 06:05:29;;;;;;;27.57;11.07;;;;;;;7.12;100.00;102451.69;5072164;28;20176;-77
2021/12/16 06:07:54;;;;;;;21.57;14.37;;;;;;;7.09;100.00;102444.03;5072365;28;20171;-77
2021/12/16 06:11:15;;;;;;;8.17;6.57;;;;;;;7.09;100.00;102454.06;5072032;28;20216;-77
2021/12/16 06:13:08;;;;;;;26.20;13.87;;;;;;;7.07;100.00;102431.72;5061056;28;20197;-77
2021/12/16 06:26:44;;;;;;;11.63;6.93;;;;;;;7.03;100.00;102455.84;5071802;28;20240;-78
2021/12/16 06:29:10;;;;;;;20.80;11.07;;;;;;;7.04;100.00;102453.94;5071883;28;20170;-77
2021/12/16 06:31:35;;;;;;;21.57;10.53;;;;;;;7.02;100.00;102461.50;5072139;28;20217;-78
2021/12/16 06:34:01;;;;;;;21.33;11.93;;;;;;;7.04;100.00;102451.22;5071641;28;20181;-77
2021/12/16 06:36:27;;;;;;;23.87;13.37;;;;;;;7.03;100.00;102468.59;5071530;28;20209;-78
2021/12/16 06:38:52;;;;;;;27.80;13.07;;;;;;;7.02;100.00;102473.22;5071785;28;20174;-77
2021/12/16 06:41:19;;;;;;;29.33;12.73;;;;;;;7.02;100.00;102478.63;5071872;28;20231;-77
2021/12/16 06:43:46;;;;;;;29.67;15.00;;;;;;;7.02;100.00;102483.25;5071324;28;20176;-78
2021/12/16 06:46:16;;;;;;;4.57;4.03;;;;;;;7.05;100.00;102488.22;5071449;28;20192;-78
2021/12/16 06:48:44;;;;;;;19.83;9.40;;;;;;;7.05;100.00;102486.31;5071660;28;20179;-78
2021/12/16 06:51:18;;;;;;;14.63;8.97;;;;;;;7.07;100.00;102483.34;5071773;28;20212;-77
2021/12/16 06:54:03;;;;;;;33.57;15.60;;;;;;;7.09;100.00;102492.13;5071561;28;20574;-77
2021/12/16 06:56:36;;;;;;;27.60;13.83;;;;;;;7.09;100.00;102482.09;5071183;28;20189;-77
2021/12/16 06:59:10;;;;;;;10.27;6.73;;;;;;;7.10;100.00;102483.72;5071290;28;20630;-76
2021/12/16 07:04:11;;;;;;;24.50;13.97;;;;;;;7.13;100.00;102499.56;5071259;28;20193;-75
2021/12/16 07:06:38;;;;;;;27.33;16.37;;;;;;;7.14;100.00;102495.78;5071082;28;20591;-75
2021/12/16 07:09:13;;;;;;;11.30;6.63;;;;;;;7.16;100.00;102509.94;5071016;28;20555;-76
2021/12/16 07:11:42;;;;;;;25.23;12.80;;;;;;;7.19;100.00;102510.53;5071221;28;20557;-75
2021/12/16 07:14:13;;;;;;;24.53;13.57;;;;;;;7.20;100.00;102502.13;5071274;28;20178;-75
2021/12/16 07:16:39;;;;;;;18.70;10.63;;;;;;;7.21;100.00;102505.69;5071040;28;20185;-75
2021/12/16 07:19:04;;;;;;;24.93;12.77;;;;;;;7.23;100.00;102512.53;5071298;28;20209;-75
2021/12/16 07:21:37;;;;;;;23.70;12.40;;;;;;;7.24;100.00;102511.50;5071020;28;20202;-75
2021/12/16 07:24:04;;;;;;;9.43;6.53;;;;;;;7.26;100.00;102506.63;5071583;28;20204;-75
2021/12/16 07:26:29;;;;;;;25.37;11.77;;;;;;;7.28;100.00;102512.66;5070789;28;20235;-74
2021/12/16 07:28:55;;;;;;;14.00;8.57;;;;;;;7.29;100.00;102511.59;5071051;28;20568;-75
2021/12/16 07:31:20;;;;;;;4.40;4.03;;;;;;;7.33;100.00;102520.09;5070955;28;20289;-75
2021/12/16 07:33:45;;;;;;;16.93;9.23;;;;;;;7.34;100.00;102522.56;5071072;28;20217;-75
2021/12/16 07:36:13;;;;;;;8.10;7.10;;;;;;;7.36;100.00;102533.22;5070652;28;20265;-75
2021/12/16 07:38:38;;;;;;;24.73;12.17;;;;;;;7.36;100.00;102520.44;5070913;28;20677;-75
2021/12/16 07:41:04;;;;;;;25.40;14.83;;;;;;;7.36;100.00;102516.91;5070934;28;20214;-75
2021/12/16 07:46:06;;;;;;;15.77;8.87;;;;;;;7.35;100.00;102518.78;5071688;28;20163;-75
2021/12/16 07:48:32;;;;;;;14.53;8.83;;;;;;;7.38;100.00;102536.53;5080042;28;20206;-75
2021/12/16 07:51:01;;;;;;;18.37;12.33;;;;;;;7.38;100.00;102529.22;5071653;28;20673;-74
2021/12/16 07:53:27;;;;;;;25.37;14.40;;;;;;;7.40;100.00;102535.22;5071307;28;20174;-75
2021/12/16 07:55:52;;;;;;;8.60;5.03;;;;;;;7.40;100.00;102527.06;5070820;28;20178;-75
2021/12/16 07:58:19;;;;;;;16.63;8.97;;;;;;;7.42;100.00;102541.25;5071710;28;20166;-75
2021/12/16 08:00:46;;;;;;;14.80;10.50;;;;;;;7.44;100.00;102554.63;5070791;28;20247;-75
2021/12/16 08:03:12;;;;;;;29.73;13.30;;;;;;;7.44;100.00;102552.72;5070959;28;20581;-75
2021/12/16 08:05:43;;;;;;;16.07;10.00;;;;;;;7.49;100.00;102560.16;5070515;28;20187;-74
2021/12/16 08:08:08;;;;;;;15.00;10.83;;;;;;;7.51;100.00;102562.63;5070452;28;20170;-75
2021/12/16 08:10:35;;;;;;;33.90;11.90;;;;;;;7.52;100.00;102564.28;5070254;28;20689;-75
2021/12/16 08:13:01;;;;;;;19.50;11.93;;;;;;;7.55;100.00;102561.94;5070846;28;20179;-75
2021/12/16 08:15:26;;;;;;;23.70;12.20;;;;;;;7.58;100.00;102574.22;5070796;28;20178;-75
2021/12/16 08:17:54;;;;;;;9.20;7.80;;;;;;;7.59;100.00;102581.31;5070633;28;20181;-75
2021/12/16 08:20:21;;;;;;;19.40;10.50;;;;;;;7.61;100.00;102581.91;5070363;28;20181;-75
2021/12/16 08:22:49;;;;;;;10.53;8.40;;;;;;;7.61;100.00;102560.13;5070306;28;20166;-75
2021/12/16 08:25:18;;;;;;;24.27;11.33;;;;;;;7.63;100.00;102590.66;5070607;28;20296;-75
2021/12/16 08:27:45;;;;;;;20.63;10.80;;;;;;;7.65;100.00;102532.22;5070264;28;20181;-75
2021/12/16 08:30:14;;;;;;;17.33;10.87;;;;;;;7.66;100.00;102563.78;5070065;28;20295;-75
2021/12/16 08:32:40;;;;;;;15.33;11.40;;;;;;;7.67;100.00;102557.31;5070319;28;20175;-75
2021/12/16 08:35:07;;;;;;;12.63;7.97;;;;;;;7.67;100.00;102551.03;5070056;28;20181;-75
2021/12/16 08:37:33;;;;;;;22.00;12.63;;;;;;;7.68;100.00;102574.44;5070111;28;20171;-75
2021/12/16 08:39:58;;;;;;;12.53;8.97;;;;;;;7.69;100.00;102584.25;5070140;28;20630;-76
2021/12/16 08:42:24;;;;;;;9.77;7.00;;;;;;;7.70;100.00;102561.44;5073526;28;20648;-75
2021/12/16 08:44:49;;;;;;;13.80;7.23;;;;;;;7.71;100.00;102554.91;5073750;28;20633;-75
2021/12/16 08:47:18;;;;;;;5.13;3.80;;;;;;;7.71;100.00;102549.47;5073807;28;20181;-75
2021/12/16 08:49:43;;;;;;;18.57;9.67;;;;;;;7.73;100.00;102575.38;5073803;28;20198;-75
2021/12/16 08:52:13;;;;;;;12.37;9.27;;;;;;;7.78;100.00;102571.09;5074346;28;20266;-75
2021/12/16 08:54:39;;;;;;;9.53;6.87;;;;;;;7.79;100.00;102573.56;5073608;28;20163;-75
2021/12/16 08:57:04;;;;;;;16.23;9.60;;;;;;;7.79;100.00;102583.63;5073687;28;20181;-74
2021/12/16 08:59:30;;;;;;;12.83;9.17;;;;;;;7.81;100.00;102560.59;5073544;28;20178;-75
2021/12/16 09:01:58;;;;;;;12.77;7.60;;;;;;;7.83;100.00;102542.13;5073576;28;20280;-75
2021/12/16 09:04:24;;;;;;;23.07;11.57;;;;;;;7.86;100.00;102568.03;5073518;28;20232;-74
2021/12/16 09:06:52;;;;;;;26.70;14.00;;;;;;;7.85;100.00;102588.13;5073326;28;20259;-75
2021/12/16 09:09:18;;;;;;;18.07;10.93;;;;;;;7.84;100.00;102567.44;5073392;28;20186;-75
2021/12/16 09:12:01;;;;;;;19.27;10.97;;;;;;;7.83;100.00;102598.44;5073381;28;20202;-74
2021/12/16 09:14:26;;;;;;;17.10;9.17;;;;;;;7.80;100.00;102607.06;5073779;28;20170;-74
2021/12/16 09:16:52;;;;;;;30.07;15.00;;;;;;;7.79;100.00;102608.13;5073598;28;20170;-75
2021/12/16 09:19:17;;;;;;;16.93;10.60;;;;;;;7.76;100.00;102583.06;5073600;28;20631;-75
2021/12/16 09:21:42;;;;;;;14.90;10.60;;;;;;;7.74;100.00;102589.81;5073734;28;20174;-79
2021/12/16 09:24:09;;;;;;;19.23;11.57;;;;;;;7.74;100.00;102601.53;5073336;28;20261;-78
2021/12/16 09:26:35;;;;;;;22.83;13.60;;;;;;;7.73;100.00;102618.91;5073109;28;20171;-79
2021/12/16 09:29:02;;;;;;;26.60;12.63;;;;;;;7.75;100.00;102584.13;5073354;28;20170;-76
2021/12/16 09:31:28;;;;;;;35.77;16.47;;;;;;;7.79;100.00;102629.91;5073375;28;20241;-73
2021/12/16 09:33:56;;;;;;;36.00;17.13;;;;;;;7.82;100.00;102616.66;5074187;28;20166;-73
2021/12/16 09:36:26;;;;;;;38.30;15.97;;;;;;;7.87;100.00;102629.53;5073472;28;20557;-75
2021/12/16 09:38:53;;;;;;;28.57;15.23;;;;;;;7.88;100.00;102637.47;5073021;28;20178;-76
2021/12/16 09:41:19;;;;;;;30.90;15.60;;;;;;;7.90;100.00;102613.56;5073310;28;20319;-75
2021/12/16 09:43:48;;;;;;;33.97;16.73;;;;;;;7.92;100.00;102603.25;5072617;28;20197;-76
2021/12/16 09:46:16;;;;;;;26.57;15.43;;;;;;;7.94;100.00;102611.16;5072517;28;20711;-75
2021/12/16 09:48:42;;;;;;;25.67;16.37;;;;;;;7.95;100.00;102615.53;5072709;28;20178;-76
2021/12/16 09:51:13;;;;;;;27.30;16.00;;;;;;;7.95;100.00;102654.47;5072641;28;20210;-76
2021/12/16 09:53:39;;;;;;;26.50;15.00;;;;;;;7.99;100.00;102636.63;5072902;28;20206;-76
2021/12/16 09:56:09;;;;;;;28.93;14.07;;;;;;;8.00;100.00;102653.78;5072717;28;20198;-76
2021/12/16 09:58:43;;;;;;;21.70;13.90;;;;;;;7.99;100.00;102660.28;5072574;28;20182;-76
2021/12/16 10:01:11;;;;;;;26.73;14.53;;;;;;;7.99;100.00;102666.56;5072451;28;20174;-76
2021/12/16 10:03:43;;;;;;;26.33;14.03;;;;;;;7.99;100.00;102633.06;5072530;28;20582;-76
2021/12/16 10:06:08;;;;;;;35.30;15.83;;;;;;;7.98;100.00;102673.06;5072364;28;20210;-76
2021/12/16 10:08:35;;;;;;;32.47;16.50;;;;;;;8.00;100.00;102667.38;5066957;28;20295;-75
2021/12/16 10:11:01;;;;;;;22.27;14.53;;;;;;;8.01;100.00;102675.31;5072350;28;20582;-74
2021/12/16 10:14:02;;;;;;;30.97;15.27;;;;;;;8.04;100.00;102665.84;5072572;28;20181;-76
2021/12/16 10:19:02;;;;;;;32.33;17.70;;;;;;;8.07;100.00;102665.34;5052399;28;20275;-76
2021/12/16 10:21:28;;;;;;;39.57;18.63;;;;;;;8.07;100.00;102679.78;5052344;28;20206;-76
2021/12/16 10:23:54;;;;;;;37.33;18.70;;;;;;;8.10;100.00;102675.78;5052303;28;20171;-76
2021/12/16 10:26:22;;;;;;;50.17;20.93;;;;;;;8.12;100.00;102670.09;5051993;28;20182;-76
2021/12/16 10:28:51;;;;;;;40.43;18.90;;;;;;;8.11;100.00;102684.78;5052221;28;20693;-76
2021/12/16 10:31:24;;;;;;;46.77;18.03;;;;;;;8.11;100.00;102673.88;5052022;28;20207;-76
2021/12/16 10:33:52;;;;;;;40.13;17.50;;;;;;;8.11;100.00;102687.50;5052069;28;20175;-76
2021/12/16 10:36:37;;;;;;;37.97;19.33;;;;;;;8.11;100.00;102672.00;5064729;28;20174;-76
2021/12/16 10:39:12;;;;;;;34.50;18.37;;;;;;;8.10;100.00;102699.44;5071808;28;20181;-76
2021/12/16 10:41:40;;;;;;;21.40;12.07;;;;;;;8.07;100.00;102685.22;5071921;28;20704;-76
2021/12/16 10:44:14;;;;;;;36.70;17.20;;;;;;;8.02;100.00;102681.59;5071490;28;20528;-76
2021/12/16 10:46:46;;;;;;;35.83;16.10;;;;;;;8.03;100.00;102675.91;5070109;28;20185;-76
2021/12/16 10:49:19;;;;;;;41.60;18.93;;;;;;;8.02;100.00;102687.03;5070603;28;20185;-76
2021/12/16 10:51:57;;;;;;;39.50;18.40;;;;;;;8.00;100.00;102678.28;5071508;28;20194;-76
2021/12/16 10:54:29;;;;;;;30.80;14.70;;;;;;;8.02;100.00;102687.84;5071501;28;20178;-76
2021/12/16 10:57:04;;;;;;;25.13;16.43;;;;;;;8.01;100.00;102674.50;5071312;28;20206;-76
2021/12/16 10:59:34;;;;;;;30.83;15.23;;;;;;;8.00;100.00;102690.00;5071404;28;20174;-76
2021/12/16 11:02:09;;;;;;;27.50;15.00;;;;;;;7.97;100.00;102676.88;5071420;28;20180;-76
2021/12/16 11:04:44;;;;;;;38.60;18.20;;;;;;;7.97;100.00;102695.91;5070663;28;20170;-76
2021/12/16 11:07:16;;;;;;;27.77;16.33;;;;;;;7.95;100.00;102691.75;5071255;28;20174;-76
2021/12/16 11:09:47;;;;;;;28.33;15.37;;;;;;;7.95;100.00;102689.03;5070910;28;20278;-75
2021/12/16 11:12:34;;;;;;;34.70;16.77;;;;;;;7.93;100.00;102691.16;5071310;28;20268;-76
2021/12/16 11:15:07;;;;;;;21.10;12.83;;;;;;;7.94;100.00;102709.16;5070937;28;20174;-76
2021/12/16 11:17:55;;;;;;;31.23;15.37;;;;;;;7.97;100.00;102692.38;5071070;28;20181;-75
2021/12/16 11:20:55;;;;;;;24.23;14.27;;;;;;;7.96;100.00;102698.88;5070869;28;20182;-75
2021/12/16 11:23:22;;;;;;;37.97;17.03;;;;;;;7.96;100.00;102699.72;5071067;28;20174;-75
2021/12/16 11:25:51;;;;;;;21.70;13.47;;;;;;;7.98;100.00;102674.97;5070869;28;20175;-75
2021/12/16 11:28:19;;;;;;;28.57;15.20;;;;;;;7.99;100.00;102701.94;5070828;28;20261;-76
2021/12/16 11:30:59;;;;;;;33.63;17.03;;;;;;;8.00;100.00;102700.06;5070719;28;20567;-76
2021/12/16 11:33:33;;;;;;;34.17;15.40;;;;;;;8.04;100.00;102691.16;5070818;28;20213;-76
2021/12/16 11:36:05;;;;;;;38.10;16.53;;;;;;;8.07;100.00;102708.91;5070687;28;20161;-75
2021/12/16 11:38:32;;;;;;;29.93;14.07;;;;;;;8.10;100.00;102713.91;5070759;28;20646;-74
2021/12/16 11:41:00;;;;;;;31.03;15.03;;;;;;;8.12;100.00;102714.47;5070719;28;20626;-73
2021/12/16 11:43:46;;;;;;;31.93;16.60;;;;;;;8.12;100.00;102717.22;5070343;28;20197;-73
2021/12/16 11:46:40;;;;;;;23.23;12.53;;;;;;;8.14;100.00;102708.78;5069101;28;20192;-74
2021/12/16 11:49:39;;;;;;;24.23;14.13;;;;;;;8.16;100.00;102709.38;5055246;28;20194;-74
2021/12/16 11:52:23;;;;;;;23.97;13.63;;;;;;;8.22;100.00;102732.91;5070552;28;20205;-74
2021/12/16 11:55:01;;;;;;;28.17;14.87;;;;;;;8.25;100.00;102738.75;5070303;28;20181;-74
2021/12/16 11:57:39;;;;;;;20.00;13.83;;;;;;;8.32;100.00;102746.75;5070470;28;20171;-74
2021/12/16 12:00:10;;;;;;;21.77;12.70;;;;;;;8.34;100.00;102740.03;5070514;28;20178;-74
2021/12/16 12:02:51;;;;;;;18.60;13.37;;;;;;;8.34;100.00;102753.66;5063226;28;20212;-74
2021/12/16 12:05:16;;;;;;;21.40;12.30;;;;;;;8.33;100.00;102738.34;5070086;28;20178;-74
2021/12/16 12:07:46;;;;;;;17.70;9.47;;;;;;;8.27;100.00;102722.97;5070299;28;20265;-74
2021/12/16 12:10:12;;;;;;;18.53;11.83;;;;;;;8.24;100.00;102753.38;5070611;28;20297;-74
2021/12/16 12:12:42;;;;;;;22.33;11.83;;;;;;;8.26;100.00;102715.88;5070451;28;20175;-74
2021/12/16 12:15:11;;;;;;;18.73;11.10;;;;;;;8.26;100.00;102732.22;5072340;28;20174;-74
2021/12/16 12:17:49;;;;;;;18.93;12.73;;;;;;;8.26;100.00;102737.66;5074617;28;20182;-74
2021/12/16 12:20:15;;;;;;;18.80;12.53;;;;;;;8.29;100.00;102744.53;5074659;28;20598;-74
2021/12/16 12:22:40;;;;;;;23.07;10.80;;;;;;;8.33;100.00;102734.78;5074207;28;20183;-73
2021/12/16 12:25:06;;;;;;;12.30;8.90;;;;;;;8.34;100.00;102753.66;5074066;28;20206;-74
2021/12/16 12:27:31;;;;;;;19.87;11.03;;;;;;;8.30;100.00;102747.00;5074151;28;20196;-74
2021/12/16 12:30:07;;;;;;;11.40;7.80;;;;;;;8.32;100.00;102714.91;5070518;28;20205;-74
2021/12/16 12:32:35;;;;;;;15.20;9.90;;;;;;;8.33;100.00;102727.47;5073433;28;20182;-73
2021/12/16 12:35:03;;;;;;;11.17;8.47;;;;;;;8.36;100.00;102747.97;5073895;28;20662;-73
2021/12/16 12:37:31;;;;;;;13.47;7.43;;;;;;;8.37;100.00;102738.72;5074107;28;20175;-73
2021/12/16 12:40:36;;;;;;;10.17;7.23;;;;;;;8.37;100.00;102748.78;5074012;28;20231;-74
2021/12/16 12:43:04;;;;;;;7.77;6.60;;;;;;;8.35;100.00;102817.94;5062009;28;20271;-74
2021/12/16 12:45:34;;;;;;;9.77;5.97;;;;;;;8.37;100.00;102722.38;5073960;28;20170;-74
2021/12/16 12:48:01;;;;;;;9.10;7.10;;;;;;;8.39;100.00;102738.47;5074171;28;20170;-79
2021/12/16 12:50:32;;;;;;;8.33;7.10;;;;;;;8.38;100.00;102747.72;5073732;28;20206;-74
2021/12/16 12:53:08;;;;;;;8.67;5.77;;;;;;;8.34;100.00;102744.66;5071977;28;20175;-74
2021/12/16 12:55:34;;;;;;;6.33;4.97;;;;;;;8.32;100.00;102750.31;5073547;28;20198;-73
2021/12/16 12:58:12;;;;;;;7.90;5.03;;;;;;;8.33;100.00;102754.69;5073879;28;20205;-74
2021/12/16 13:00:45;;;;;;;9.73;6.30;;;;;;;8.36;100.00;102745.25;5073607;28;20228;-74
2021/12/16 13:03:17;;;;;;;11.20;7.43;;;;;;;8.38;100.00;102794.03;5073646;28;20171;-74
2021/12/16 13:05:53;;;;;;;11.43;7.63;;;;;;;8.38;100.00;102794.03;5073382;28;20182;-74
2021/12/16 13:08:26;;;;;;;10.77;7.17;;;;;;;8.38;100.00;102792.13;5069430;28;20186;-74
2021/12/16 13:10:58;;;;;;;10.43;6.93;;;;;;;8.40;100.00;102781.84;5073332;28;20252;-73
2021/12/16 13:16:35;;;;;;;11.40;7.07;;;;;;;8.41;100.00;102788.13;5073589;28;20175;-74
2021/12/16 13:27:45;;;;;;;8.23;6.10;;;;;;;8.49;100.00;102769.50;5038128;28;20182;-74
2021/12/16 13:30:21;;;;;;;9.67;6.50;;;;;;;8.49;100.00;102799.47;5073061;28;20677;-74
2021/12/16 13:35:59;;;;;;;11.50;7.13;;;;;;;8.48;100.00;102794.25;4990909;28;20212;-73
2021/12/16 13:38:36;;;;;;;8.83;6.27;;;;;;;8.48;100.00;102794.25;5062078;28;20190;-73
2021/12/16 13:41:09;;;;;;;9.87;6.40;;;;;;;8.48;100.00;102784.19;5072785;28;20233;-74
2021/12/16 13:43:34;;;;;;;8.63;7.07;;;;;;;8.49;100.00;102785.00;5073119;28;20174;-73
2021/12/16 13:46:27;;;;;;;9.17;6.10;;;;;;;8.50;100.00;102797.56;5072802;28;20174;-73
2021/12/16 14:03:14;;;;;;;9.73;7.43;;;;;;;8.50;100.00;102786.66;5072192;28;20166;-73
2021/12/16 14:05:53;;;;;;;15.60;9.37;;;;;;;8.50;100.00;102787.50;5072104;28;20206;-74
2021/12/16 14:08:49;;;;;;;11.13;8.53;;;;;;;8.54;100.00;102783.25;5072198;28;20181;-74
2021/12/16 14:14:49;;;;;;;11.60;8.73;;;;;;;8.44;100.00;102785.75;5072741;28;20529;-74
2021/12/16 14:23:59;;;;;;;7.37;6.40;;;;;;;8.35;100.00;102800.78;5072053;28;20260;-73
2021/12/16 14:26:39;;;;;;;9.57;6.80;;;;;;;8.30;100.00;102781.59;5071572;28;20193;-73
2021/12/16 14:42:43;;;;;;;11.37;8.03;;;;;;;8.27;100.00;102801.97;5071821;28;20170;-74
2021/12/16 14:47:58;;;;;;;8.47;6.47;;;;;;;8.44;100.00;102803.97;5076564;28;20261;-74
2021/12/16 14:50:35;;;;;;;11.13;8.07;;;;;;;8.44;100.00;102809.44;5075736;28;20201;-74
2021/12/16 14:53:30;;;;;;;8.87;7.13;;;;;;;8.45;100.00;102806.47;5071401;28;20307;-73
2021/12/16 14:56:00;;;;;;;9.57;6.80;;;;;;;8.42;100.00;102820.56;5060192;28;20190;-73